sensor_id;sensor_type;location;lat;lon;timestamp;temperature;humidity
39695;DHT22;25367;-35.352;149.036;2023-08-24T10:28:43;17.40;64.00
39695;DHT22;25367;-35.352;149.036;2023-08-24T10:31:14;17.40;64.80
39695;DHT22;25367;-35.352;149.036;2023-08-24T10:33:44;17.60;64.70
39695;DHT22;25367;-35.352;149.036;2023-08-24T10:36:14;17.70;64.30
39695;DHT22;25367;-35.352;149.036;2023-08-24T10:38:44;17.90;64.00
39695;DHT22;25367;-35.352;149.036;2023-08-24T10:41:13;18.00;63.70
39695;DHT22;25367;-35.352;149.036;2023-08-24T10:43:50;18.00;63.40
39695;DHT22;25367;-35.352;149.036;2023-08-24T10:46:19;18.10;63.30
39695;DHT22;25367;-35.352;149.036;2023-08-24T10:49:03;18.20;63.20
39695;DHT22;25367;-35.352;149.036;2023-08-24T10:51:34;18.20;63.10
39695;DHT22;25367;-35.352;149.036;2023-08-24T10:54:11;18.30;63.20
39695;DHT22;25367;-35.352;149.036;2023-08-24T10:56:53;18.30;63.10
39695;DHT22;25367;-35.352;149.036;2023-08-24T10:59:26;18.40;62.90
39695;DHT22;25367;-35.352;149.036;2023-08-24T11:02:04;18.40;62.90
39695;DHT22;25367;-35.352;149.036;2023-08-24T11:04:33;18.40;62.80
39695;DHT22;25367;-35.352;149.036;2023-08-24T11:07:02;18.40;62.70
39695;DHT22;25367;-35.352;149.036;2023-08-24T11:09:46;18.50;62.60
39695;DHT22;25367;-35.352;149.036;2023-08-24T11:12:16;18.60;62.50
39695;DHT22;25367;-35.352;149.036;2023-08-24T11:14:54;18.50;62.40
39695;DHT22;25367;-35.352;149.036;2023-08-24T11:17:23;18.60;62.40
39695;DHT22;25367;-35.352;149.036;2023-08-24T11:19:53;18.60;62.40
39695;DHT22;25367;-35.352;149.036;2023-08-24T11:22:23;18.60;62.30
39695;DHT22;25367;-35.352;149.036;2023-08-24T11:24:54;18.60;62.20
39695;DHT22;25367;-35.352;149.036;2023-08-24T11:27:24;18.70;62.20
39695;DHT22;25367;-35.352;149.036;2023-08-24T11:30:06;18.70;62.00
39695;DHT22;25367;-35.352;149.036;2023-08-24T11:32:35;18.80;61.90
39695;DHT22;25367;-35.352;149.036;2023-08-24T11:35:06;18.70;62.20
39695;DHT22;25367;-35.352;149.036;2023-08-24T11:37:36;18.80;61.90
39695;DHT22;25367;-35.352;149.036;2023-08-24T11:40:06;18.80;61.80
39695;DHT22;25367;-35.352;149.036;2023-08-24T11:42:37;18.80;61.80
39695;DHT22;25367;-35.352;149.036;2023-08-24T11:45:16;18.80;61.70
39695;DHT22;25367;-35.352;149.036;2023-08-24T11:47:46;18.80;61.60
39695;DHT22;25367;-35.352;149.036;2023-08-24T11:50:15;18.80;61.50
39695;DHT22;25367;-35.352;149.036;2023-08-24T11:52:45;18.80;61.50
39695;DHT22;25367;-35.352;149.036;2023-08-24T11:55:15;18.80;61.50
39695;DHT22;25367;-35.352;149.036;2023-08-24T11:57:44;18.80;61.30
39695;DHT22;25367;-35.352;149.036;2023-08-24T12:00:18;18.80;61.30
39695;DHT22;25367;-35.352;149.036;2023-08-24T12:02:49;18.90;61.20
39695;DHT22;25367;-35.352;149.036;2023-08-24T12:05:23;18.90;61.20
39695;DHT22;25367;-35.352;149.036;2023-08-24T12:07:53;18.90;61.10
39695;DHT22;25367;-35.352;149.036;2023-08-24T12:10:23;18.90;61.10
39695;DHT22;25367;-35.352;149.036;2023-08-24T12:13:03;18.90;61.00
39695;DHT22;25367;-35.352;149.036;2023-08-24T12:15:36;18.90;60.90
39695;DHT22;25367;-35.352;149.036;2023-08-24T12:18:10;18.90;60.90
39695;DHT22;25367;-35.352;149.036;2023-08-24T12:20:41;18.90;60.90
39695;DHT22;25367;-35.352;149.036;2023-08-24T12:23:11;18.90;60.70
39695;DHT22;25367;-35.352;149.036;2023-08-24T12:25:44;18.90;60.70
39695;DHT22;25367;-35.352;149.036;2023-08-24T12:28:14;18.90;60.70
39695;DHT22;25367;-35.352;149.036;2023-08-24T12:30:56;18.90;60.60
39695;DHT22;25367;-35.352;149.036;2023-08-24T12:33:26;18.90;60.50
39695;DHT22;25367;-35.352;149.036;2023-08-24T12:35:56;18.90;60.40
39695;DHT22;25367;-35.352;149.036;2023-08-24T12:38:26;18.90;60.40
39695;DHT22;25367;-35.352;149.036;2023-08-24T12:40:56;18.90;60.30
39695;DHT22;25367;-35.352;149.036;2023-08-24T12:43:26;18.90;60.20
39695;DHT22;25367;-35.352;149.036;2023-08-24T22:27:09;15.60;64.90
39695;DHT22;25367;-35.352;149.036;2023-08-24T22:29:38;15.60;66.00
39695;DHT22;25367;-35.352;149.036;2023-08-24T22:32:08;15.80;65.70
39695;DHT22;25367;-35.352;149.036;2023-08-24T22:34:37;15.90;65.20
39695;DHT22;25367;-35.352;149.036;2023-08-24T22:37:07;16.10;64.90
39695;DHT22;25367;-35.352;149.036;2023-08-24T22:39:37;16.20;64.50
39695;DHT22;25367;-35.352;149.036;2023-08-24T22:42:10;16.40;64.30
39695;DHT22;25367;-35.352;149.036;2023-08-24T22:44:40;16.40;64.00
39695;DHT22;25367;-35.352;149.036;2023-08-24T22:47:09;16.50;63.90
39695;DHT22;25367;-35.352;149.036;2023-08-24T22:49:39;16.50;63.70
39695;DHT22;25367;-35.352;149.036;2023-08-24T22:52:08;16.60;63.60
39695;DHT22;25367;-35.352;149.036;2023-08-24T22:54:38;16.60;63.50
39695;DHT22;25367;-35.352;149.036;2023-08-24T22:57:11;16.70;63.30
39695;DHT22;25367;-35.352;149.036;2023-08-24T22:59:40;16.70;63.20
39695;DHT22;25367;-35.352;149.036;2023-08-24T23:02:10;16.70;63.10
39695;DHT22;25367;-35.352;149.036;2023-08-24T23:04:39;16.80;63.10
39695;DHT22;25367;-35.352;149.036;2023-08-24T23:07:09;16.80;63.00
39695;DHT22;25367;-35.352;149.036;2023-08-24T23:09:38;16.80;63.00
39695;DHT22;25367;-35.352;149.036;2023-08-24T23:12:10;16.80;62.90
39695;DHT22;25367;-35.352;149.036;2023-08-24T23:14:39;16.90;62.80
39695;DHT22;25367;-35.352;149.036;2023-08-24T23:17:09;16.90;62.70
39695;DHT22;25367;-35.352;149.036;2023-08-24T23:19:38;17.00;62.70
39695;DHT22;25367;-35.352;149.036;2023-08-24T23:22:10;16.90;62.60
39695;DHT22;25367;-35.352;149.036;2023-08-24T23:24:40;17.00;62.70
39695;DHT22;25367;-35.352;149.036;2023-08-24T23:27:13;17.00;62.70
39695;DHT22;25367;-35.352;149.036;2023-08-24T23:29:42;17.10;62.70
39695;DHT22;25367;-35.352;149.036;2023-08-24T23:32:12;17.10;62.70
39695;DHT22;25367;-35.352;149.036;2023-08-24T23:34:41;17.10;62.70
39695;DHT22;25367;-35.352;149.036;2023-08-24T23:37:12;17.10;62.60
39695;DHT22;25367;-35.352;149.036;2023-08-24T23:39:42;17.10;62.60
39695;DHT22;25367;-35.352;149.036;2023-08-24T23:42:14;17.20;62.70
39695;DHT22;25367;-35.352;149.036;2023-08-24T23:44:43;17.20;62.70
39695;DHT22;25367;-35.352;149.036;2023-08-24T23:47:13;17.20;62.60
39695;DHT22;25367;-35.352;149.036;2023-08-24T23:49:42;17.30;62.70
39695;DHT22;25367;-35.352;149.036;2023-08-24T23:52:12;17.30;62.70
39695;DHT22;25367;-35.352;149.036;2023-08-24T23:57:47;17.30;61.80
